首页
METAR-TAF:

METAR-TAF

机场 :

Kapuskasing, 安大略省, 加拿大

纬度: 49-25N, 经度: 082-28W, 海拔: 227米

当前天气观测

该预报发布于28分钟前的03:00 UTC
风速7节,风向
温度 7°C
湿度 70%
气压 1018 hPa
能見度: 24.1公里
多云层高于9200英尺

METAR: CYYU 010300Z 17007KT 15SM BKN092 07/02 A3005 RMK AC7 SLP187

时间: 23:28 (03:28 UTC)

预报

该预报发布于1小时和58分钟前的01:30 UTC
预报有效从01日的 02点(UTC)到 01日的 14点(UTC)
风速5节,风向
能見度: 10公里
少量云层高于5000英尺
散云层高于10000英尺
散云层高于25000英尺
从 01日的 0900点(UTC)
风速5节,风向西转西北
能見度: 10公里
少量云层高于10000英尺
少量云层高于20000英尺
成为
从 01日的 11点(UTC)到 01日的 13点(UTC)
风速5节,风向

TAF: CYYU 010130Z 0102/0114 17005KT P6SM FEW050 SCT100 SCT250 FM010900 29005KT P6SM FEW100 FEW200 BECMG 0111/0113 35005KT RMK NXT FCST BY 010800Z

超过4000个机场的气象观测和天气预报(METAR&TAF报告)。

可查询的气象台以黄色和红色小点在地图上表示。

将鼠标移到小点上方,可查看气象台名称。

然后点击查看天气观测和预报。

如需切换地图:点击带黑十字的绿色按钮放大地图;点击带横线的绿色按钮缩小地图;或者点击绿色箭头查看邻近地区的地图。


METAR-TAF: